Terminal Aerodrome Forecast
Issued by NWS

Home | Current Version | Previous Version | Graphics & Text | Print | Product List | Glossary On
Versions: 1 2 3 4 5 6 7 8 9 10 11 12 13 14 15 16 17 18 19 20
000
FTUS45 KBOU 301135
TAFBJC
TAF
KBJC 301135Z 3012/0112 30006KT P6SM SCT110 BKN200
     FM301400 VRB05KT P6SM BKN100 BKN180
     FM301800 08006KT P6SM SCT080 OVC120
     FM302100 24007KT P6SM VCSH BKN070 BKN150
     FM010300 28006KT P6SM BKN080 BKN150=

USA.gov is the U.S. government's official web portal to all federal, state and local government web resources and services.